Airport ID:K63S
Update Time (UTC):20/09/2020 18:08
Wind Speed (Knots):6
Wind Direction (Magnetic):160
Temperature (°C):17
Dew Point (°C):10
Humidity (%):62
Altimeter (inHg):30.06
Density Altitude (Feet):
Visibility:10+
Clouds (Hundreds of feet):CLR
Present Weather:
METAR:METAR K63S 201805Z AUTO 18006KT 10SM CLR 17/10 A3006 RMK A01

The data displayed is for advisory purposes only and is not to be used for flight planning or operations.